CCGS Neocaligus — CG7677 — position and weather

sailwx.info

Track history (hours):
 
Tides and Currents Weather Stations Pressure Air Temp Water Temp Dewpoint Dewpoint Depression Visibility Wind Speed Wind Dir Waves Ship Positions

CCGS Neocaligus

Last reported at 2016-Aug-27 23:33 UTC. Time now 2016-Aug-28 00:28 UTC.
Position N 49°30' W 123°15'.

Length 23 m; draft 3.5 m.

Type: Fishing. MMSI: 316001759.

Date/timePositionNaut miles runAvg speedWind from/ knotsBaromVisibWave heightAir tempDewpointWater temp
2016-Aug-27 23:33N 49°30' W 123°15'1 0.8
2016-Aug-27 22:33N 49°29' W 123°15'3 2.6
2016-Aug-27 21:34N 49°28' W 123°19'3 2.6
2016-Aug-27 20:34N 49°26' W 123°21'0 0.1
2016-Aug-27 19:33N 49°26' W 123°21'3 2.5
2016-Aug-27 18:32N 49°24' W 123°19'2 2.3
2016-Aug-27 17:32N 49°21' W 123°20'3 3.3
2016-Aug-27 16:33N 49°24' W 123°18'2 2.2
2016-Aug-27 15:33N 49°25' W 123°22'2 2.2
2016-Aug-27 14:34N 49°24' W 123°24'4 3.8
2016-Aug-27 13:32N 49°24' W 123°30'0 0.0
2016-Aug-27 12:20N 49°24' W 123°30'0 0.0
2016-Aug-27 11:32N 49°24' W 123°30'0 0.0
2016-Aug-27 10:32N 49°24' W 123°30'0 0.0
2016-Aug-27 09:32N 49°24' W 123°30'0 0.0
2016-Aug-27 08:32N 49°24' W 123°30'0 0.0
2016-Aug-27 07:32N 49°24' W 123°30'0 0.0
2016-Aug-27 06:32N 49°24' W 123°30'0 0.0
2016-Aug-27 04:29N 49°24' W 123°30'0 0.0
2016-Aug-27 03:32N 49°24' W 123°30'0 0.0
2016-Aug-27 02:29N 49°24' W 123°30'1 1.5
2016-Aug-27 01:33N 49°23' W 123°30'10 9.6
2016-Aug-27 00:33N 49°13' W 123°27'9 9.0
2016-Aug-26 23:33N 49°04' W 123°24'9 8.7
2016-Aug-26 22:33N 48°56' W 123°19'8 7.0
2016-Aug-26 21:26N 48°49' W 123°21'8 8.6
2016-Aug-26 20:30N 48°43' W 123°30'2 1.5
2016-Aug-26 19:23N 48°43' W 123°32'1 0.6
2016-Aug-26 18:11N 48°44' W 123°33'2 2.9
2016-Aug-26 17:32N 48°44' W 123°36'1 0.6
2016-Aug-26 16:32N 48°45' W 123°35'0 0.3
2016-Aug-26 15:21N 48°45' W 123°36'0 0.4
2016-Aug-26 14:31N 48°45' W 123°36'1 0.7
2016-Aug-26 13:33N 48°44' W 123°37'0 0.0
2016-Aug-26 10:27N 48°44' W 123°37'0 0.0
2016-Aug-26 09:09N 48°44' W 123°37'0 0.0
2016-Aug-26 08:33N 48°44' W 123°37'0 0.0
2016-Aug-26 02:27N 48°44' W 123°37'0 0.0
2016-Aug-26 01:21N 48°44' W 123°37'0 0.0
2016-Aug-26 00:27N 48°44' W 123°37'2 2.4
2016-Aug-25 23:32N 48°46' W 123°35'1 0.3
2016-Aug-25 21:13N 48°45' W 123°34'1 0.7
2016-Aug-25 20:28N 48°45' W 123°34'0 0.4
2016-Aug-25 19:30N 48°45' W 123°34'4 3.9
2016-Aug-25 18:33N 48°49' W 123°34'9 9.4
2016-Aug-25 17:33N 48°57' W 123°41'9 9.2
2016-Aug-25 16:32N 49°06' W 123°47'4 4.1
2016-Aug-25 15:26N 49°09' W 123°51'5 1.8
2016-Aug-25 12:22N 49°13' W 123°57'0 0.0
2016-Aug-25 11:31N 49°13' W 123°57'0 0.0
2016-Aug-25 09:25N 49°13' W 123°57'0 0.0
2016-Aug-25 08:25N 49°13' W 123°57'0 0.0
2016-Aug-25 07:25N 49°13' W 123°57'0 0.0
2016-Aug-25 02:25N 49°13' W 123°57'0 0.0
2016-Aug-24 14:25N 49°13' W 123°57'0 0.0
2016-Aug-24 12:31N 49°13' W 123°57'0 0.0
2016-Aug-24 11:31N 49°13' W 123°57'0 0.0
2016-Aug-24 10:25N 49°13' W 123°57'0 0.0
2016-Aug-24 09:31N 49°13' W 123°57'0 0.0
2016-Aug-24 08:31N 49°13' W 123°57'0 0.0
2016-Aug-24 07:31N 49°13' W 123°57'0 0.0
2016-Aug-24 06:25N 49°13' W 123°57'0 0.0
2016-Aug-24 04:31N 49°13' W 123°57'0 0.0
2016-Aug-24 03:22N 49°13' W 123°57'0 0.0
2016-Aug-24 02:25N 49°13' W 123°57'0 0.0
2016-Aug-24 01:31N 49°13' W 123°57'1 1.0
2016-Aug-24 00:33N 49°13' W 123°56'1010.2
2016-Aug-23 23:34N 49°20' W 124°07'1010.0
2016-Aug-23 22:33N 49°26' W 124°19'1010.0
2016-Aug-23 21:33N 49°33' W 124°30'10 9.7
2016-Aug-23 20:33N 49°40' W 124°40'1010.0
2016-Aug-23 19:34N 49°48' W 124°50'10 9.9
2016-Aug-23 18:34N 49°55' W 125°00'9 8.4
2016-Aug-23 17:27N 50°02' W 125°09'0 0.1
2016-Aug-23 16:27N 50°02' W 125°09'0 0.2
2016-Aug-23 15:31N 50°02' W 125°10'4 3.8
2016-Aug-23 14:33N 50°02' W 125°04'4 3.9
2016-Aug-23 13:32N 50°04' W 124°59'0 0.0
2016-Aug-23 12:32N 50°04' W 124°59'0 0.0
2016-Aug-23 11:32N 50°04' W 124°59'0 0.0
2016-Aug-23 10:32N 50°04' W 124°59'0 0.0
2016-Aug-23 09:32N 50°04' W 124°59'0 0.0
2016-Aug-23 08:32N 50°04' W 124°59'0 0.0
2016-Aug-23 07:32N 50°04' W 124°59'0 0.0
2016-Aug-23 06:32N 50°04' W 124°59'0 0.0
2016-Aug-23 05:32N 50°04' W 124°59'0 0.0
2016-Aug-23 04:32N 50°04' W 124°59'0 0.0
2016-Aug-23 03:32N 50°04' W 124°59'0 0.0
2016-Aug-23 02:32N 50°04' W 124°59'0 0.0
2016-Aug-23 01:32N 50°04' W 124°59'0 0.0
2016-Aug-23 00:32N 50°04' W 124°59'0 0.0
2016-Aug-22 23:29N 50°04' W 124°59'2 2.0
2016-Aug-22 22:33N 50°03' W 125°01'1 1.4
2016-Aug-22 21:28N 50°04' W 125°00'1 0.7
2016-Aug-22 20:33N 50°04' W 124°59'1 1.1
2016-Aug-22 19:33N 50°04' W 125°01'1 1.4
2016-Aug-22 18:34N 50°05' W 125°02'7 7.0
2016-Aug-22 17:33N 50°08' W 125°12'1 0.9
2016-Aug-22 16:32N 50°07' W 125°13'0 0.2
2016-Aug-22 15:33N 50°07' W 125°12'0 0.2
2016-Aug-22 14:25N 50°07' W 125°13'1 0.8
2016-Aug-22 13:32N 50°06' W 125°13'0 0.0
2016-Aug-22 12:32N 50°06' W 125°13'0 0.0
2016-Aug-22 11:32N 50°06' W 125°13'0 0.0
2016-Aug-22 10:32N 50°06' W 125°13'0 0.0
2016-Aug-22 09:32N 50°06' W 125°13'0 0.0
2016-Aug-22 08:32N 50°06' W 125°13'0 0.0
2016-Aug-22 07:32N 50°06' W 125°13'0 0.0
2016-Aug-22 06:32N 50°06' W 125°13'0 0.0
2016-Aug-22 05:32N 50°06' W 125°13'0 0.0
2016-Aug-22 04:32N 50°06' W 125°13'0 0.0
2016-Aug-22 03:32N 50°06' W 125°13'0 0.0
2016-Aug-22 02:32N 50°06' W 125°13'0 0.0
2016-Aug-22 01:32N 50°06' W 125°13'0 0.0
2016-Aug-22 00:32N 50°06' W 125°13'0 0.0
2016-Aug-21 23:30N 50°06' W 125°13'7 6.9
2016-Aug-21 22:33N 50°00' W 125°08'9 9.0
2016-Aug-21 21:33N 50°06' W 125°18'9 9.2
2016-Aug-21 20:33N 50°15' W 125°24'5 5.0
2016-Aug-21 19:33N 50°20' W 125°26'3 2.8
2016-Aug-21 18:33N 50°17' W 125°23'2 1.5
2016-Aug-21 17:29N 50°18' W 125°26'1 0.8
2016-Aug-21 16:21N 50°18' W 125°25'1 0.6
2016-Aug-21 15:18N 50°18' W 125°25'2 2.6
2016-Aug-21 14:34N 50°17' W 125°23'4 0.5
2016-Aug-21 07:22N 50°14' W 125°18'1 0.1
2016-Aug-21 00:33N 50°15' W 125°19'9 7.1
2016-Aug-20 23:19N 50°23' W 125°21'  
2016-Aug-18 01:27N 50°52' W 126°54'  
Track history (hours):
 
Tides and Currents Weather Stations Pressure Air Temp Water Temp Dewpoint Dewpoint Depression Visibility Wind Speed Wind Dir Waves Ship Positions

CCGS Neocaligus

Last reported at 2016-Aug-27 23:33 UTC. Time now 2016-Aug-28 00:28 UTC.
Position N 49°30' W 123°15'.

Length 23 m; draft 3.5 m.

Type: Fishing. MMSI: 316001759.

Date/timePositionNaut miles runAvg speedWind from/ knotsBaromVisibWave heightAir tempDewpointWater temp
2016-Aug-27 23:33N 49°30' W 123°15'1 0.8
2016-Aug-27 22:33N 49°29' W 123°15'3 2.6
2016-Aug-27 21:34N 49°28' W 123°19'3 2.6
2016-Aug-27 20:34N 49°26' W 123°21'0 0.1
2016-Aug-27 19:33N 49°26' W 123°21'3 2.5
2016-Aug-27 18:32N 49°24' W 123°19'2 2.3
2016-Aug-27 17:32N 49°21' W 123°20'3 3.3
2016-Aug-27 16:33N 49°24' W 123°18'2 2.2
2016-Aug-27 15:33N 49°25' W 123°22'2 2.2
2016-Aug-27 14:34N 49°24' W 123°24'4 3.8
2016-Aug-27 13:32N 49°24' W 123°30'0 0.0
2016-Aug-27 12:20N 49°24' W 123°30'0 0.0
2016-Aug-27 11:32N 49°24' W 123°30'0 0.0
2016-Aug-27 10:32N 49°24' W 123°30'0 0.0
2016-Aug-27 09:32N 49°24' W 123°30'0 0.0
2016-Aug-27 08:32N 49°24' W 123°30'0 0.0
2016-Aug-27 07:32N 49°24' W 123°30'0 0.0
2016-Aug-27 06:32N 49°24' W 123°30'0 0.0
2016-Aug-27 04:29N 49°24' W 123°30'0 0.0
2016-Aug-27 03:32N 49°24' W 123°30'0 0.0
2016-Aug-27 02:29N 49°24' W 123°30'1 1.5
2016-Aug-27 01:33N 49°23' W 123°30'10 9.6
2016-Aug-27 00:33N 49°13' W 123°27'9 9.0
2016-Aug-26 23:33N 49°04' W 123°24'9 8.7
2016-Aug-26 22:33N 48°56' W 123°19'8 7.0
2016-Aug-26 21:26N 48°49' W 123°21'8 8.6
2016-Aug-26 20:30N 48°43' W 123°30'2 1.5
2016-Aug-26 19:23N 48°43' W 123°32'1 0.6
2016-Aug-26 18:11N 48°44' W 123°33'2 2.9
2016-Aug-26 17:32N 48°44' W 123°36'1 0.6
2016-Aug-26 16:32N 48°45' W 123°35'0 0.3
2016-Aug-26 15:21N 48°45' W 123°36'0 0.4
2016-Aug-26 14:31N 48°45' W 123°36'1 0.7
2016-Aug-26 13:33N 48°44' W 123°37'0 0.0
2016-Aug-26 10:27N 48°44' W 123°37'0 0.0
2016-Aug-26 09:09N 48°44' W 123°37'0 0.0
2016-Aug-26 08:33N 48°44' W 123°37'0 0.0
2016-Aug-26 02:27N 48°44' W 123°37'0 0.0
2016-Aug-26 01:21N 48°44' W 123°37'0 0.0
2016-Aug-26 00:27N 48°44' W 123°37'2 2.4
2016-Aug-25 23:32N 48°46' W 123°35'1 0.3
2016-Aug-25 21:13N 48°45' W 123°34'1 0.7
2016-Aug-25 20:28N 48°45' W 123°34'0 0.4
2016-Aug-25 19:30N 48°45' W 123°34'4 3.9
2016-Aug-25 18:33N 48°49' W 123°34'9 9.4
2016-Aug-25 17:33N 48°57' W 123°41'9 9.2
2016-Aug-25 16:32N 49°06' W 123°47'4 4.1
2016-Aug-25 15:26N 49°09' W 123°51'5 1.8
2016-Aug-25 12:22N 49°13' W 123°57'0 0.0
2016-Aug-25 11:31N 49°13' W 123°57'0 0.0
2016-Aug-25 09:25N 49°13' W 123°57'0 0.0
2016-Aug-25 08:25N 49°13' W 123°57'0 0.0
2016-Aug-25 07:25N 49°13' W 123°57'0 0.0
2016-Aug-25 02:25N 49°13' W 123°57'0 0.0
2016-Aug-24 14:25N 49°13' W 123°57'0 0.0
2016-Aug-24 12:31N 49°13' W 123°57'0 0.0
2016-Aug-24 11:31N 49°13' W 123°57'0 0.0
2016-Aug-24 10:25N 49°13' W 123°57'0 0.0
2016-Aug-24 09:31N 49°13' W 123°57'0 0.0
2016-Aug-24 08:31N 49°13' W 123°57'0 0.0
2016-Aug-24 07:31N 49°13' W 123°57'0 0.0
2016-Aug-24 06:25N 49°13' W 123°57'0 0.0
2016-Aug-24 04:31N 49°13' W 123°57'0 0.0
2016-Aug-24 03:22N 49°13' W 123°57'0 0.0
2016-Aug-24 02:25N 49°13' W 123°57'0 0.0
2016-Aug-24 01:31N 49°13' W 123°57'1 1.0
2016-Aug-24 00:33N 49°13' W 123°56'1010.2
2016-Aug-23 23:34N 49°20' W 124°07'1010.0
2016-Aug-23 22:33N 49°26' W 124°19'1010.0
2016-Aug-23 21:33N 49°33' W 124°30'10 9.7
2016-Aug-23 20:33N 49°40' W 124°40'1010.0
2016-Aug-23 19:34N 49°48' W 124°50'10 9.9
2016-Aug-23 18:34N 49°55' W 125°00'9 8.4
2016-Aug-23 17:27N 50°02' W 125°09'0 0.1
2016-Aug-23 16:27N 50°02' W 125°09'0 0.2
2016-Aug-23 15:31N 50°02' W 125°10'4 3.8
2016-Aug-23 14:33N 50°02' W 125°04'4 3.9
2016-Aug-23 13:32N 50°04' W 124°59'0 0.0
2016-Aug-23 12:32N 50°04' W 124°59'0 0.0
2016-Aug-23 11:32N 50°04' W 124°59'0 0.0
2016-Aug-23 10:32N 50°04' W 124°59'0 0.0
2016-Aug-23 09:32N 50°04' W 124°59'0 0.0
2016-Aug-23 08:32N 50°04' W 124°59'0 0.0
2016-Aug-23 07:32N 50°04' W 124°59'0 0.0
2016-Aug-23 06:32N 50°04' W 124°59'0 0.0
2016-Aug-23 05:32N 50°04' W 124°59'0 0.0
2016-Aug-23 04:32N 50°04' W 124°59'0 0.0
2016-Aug-23 03:32N 50°04' W 124°59'0 0.0
2016-Aug-23 02:32N 50°04' W 124°59'0 0.0
2016-Aug-23 01:32N 50°04' W 124°59'0 0.0
2016-Aug-23 00:32N 50°04' W 124°59'0 0.0
2016-Aug-22 23:29N 50°04' W 124°59'2 2.0
2016-Aug-22 22:33N 50°03' W 125°01'1 1.4
2016-Aug-22 21:28N 50°04' W 125°00'1 0.7
2016-Aug-22 20:33N 50°04' W 124°59'1 1.1
2016-Aug-22 19:33N 50°04' W 125°01'1 1.4
2016-Aug-22 18:34N 50°05' W 125°02'7 7.0
2016-Aug-22 17:33N 50°08' W 125°12'1 0.9
2016-Aug-22 16:32N 50°07' W 125°13'0 0.2
2016-Aug-22 15:33N 50°07' W 125°12'0 0.2
2016-Aug-22 14:25N 50°07' W 125°13'1 0.8
2016-Aug-22 13:32N 50°06' W 125°13'0 0.0
2016-Aug-22 12:32N 50°06' W 125°13'0 0.0
2016-Aug-22 11:32N 50°06' W 125°13'0 0.0
2016-Aug-22 10:32N 50°06' W 125°13'0 0.0
2016-Aug-22 09:32N 50°06' W 125°13'0 0.0
2016-Aug-22 08:32N 50°06' W 125°13'0 0.0
2016-Aug-22 07:32N 50°06' W 125°13'0 0.0
2016-Aug-22 06:32N 50°06' W 125°13'0 0.0
2016-Aug-22 05:32N 50°06' W 125°13'0 0.0
2016-Aug-22 04:32N 50°06' W 125°13'0 0.0
2016-Aug-22 03:32N 50°06' W 125°13'0 0.0
2016-Aug-22 02:32N 50°06' W 125°13'0 0.0
2016-Aug-22 01:32N 50°06' W 125°13'0 0.0
2016-Aug-22 00:32N 50°06' W 125°13'0 0.0
2016-Aug-21 23:30N 50°06' W 125°13'7 6.9
2016-Aug-21 22:33N 50°00' W 125°08'9 9.0
2016-Aug-21 21:33N 50°06' W 125°18'9 9.2
2016-Aug-21 20:33N 50°15' W 125°24'5 5.0
2016-Aug-21 19:33N 50°20' W 125°26'3 2.8
2016-Aug-21 18:33N 50°17' W 125°23'2 1.5
2016-Aug-21 17:29N 50°18' W 125°26'1 0.8
2016-Aug-21 16:21N 50°18' W 125°25'1 0.6
2016-Aug-21 15:18N 50°18' W 125°25'2 2.6
2016-Aug-21 14:34N 50°17' W 125°23'4 0.5
2016-Aug-21 07:22N 50°14' W 125°18'1 0.1
2016-Aug-21 00:33N 50°15' W 125°19'9 7.1
2016-Aug-20 23:19N 50°23' W 125°21'  
2016-Aug-18 01:27N 50°52' W 126°54'  

Dump ship's entire track history